createdAt,value
2023-05-05T00:00:05.149Z,6
2023-05-05T00:02:02.155Z,7
2023-05-05T00:04:01.732Z,7
2023-05-05T00:06:01.285Z,7
2023-05-05T00:08:01.945Z,5
2023-05-05T00:10:01.633Z,5
2023-05-05T00:12:02.192Z,3
2023-05-05T00:14:01.702Z,7
2023-05-05T00:16:01.324Z,7
2023-05-05T00:18:02.105Z,3
2023-05-05T00:20:01.499Z,5
2023-05-05T00:22:02.004Z,5
2023-05-05T00:24:01.668Z,4
2023-05-05T00:26:01.308Z,5
2023-05-05T00:28:01.901Z,5
2023-05-05T00:30:01.508Z,4
2023-05-05T00:32:01.928Z,4
2023-05-05T00:34:01.474Z,4
2023-05-05T00:36:02.082Z,3
2023-05-05T00:38:01.685Z,4
2023-05-05T00:40:02.243Z,4
2023-05-05T00:42:01.621Z,3
2023-05-05T00:44:02.242Z,5
2023-05-05T00:46:01.970Z,5
2023-05-05T00:48:01.739Z,3
2023-05-05T00:50:02.009Z,5
2023-05-05T00:52:01.452Z,5
2023-05-05T00:54:01.918Z,3
2023-05-05T00:56:01.510Z,4
2023-05-05T00:58:02.152Z,4
2023-05-05T01:00:06.837Z,3
2023-05-05T01:04:02.015Z,4
2023-05-05T01:06:01.396Z,1
2023-05-05T01:08:02.035Z,7
2023-05-05T01:10:15.622Z,7
2023-05-05T01:12:01.994Z,4
2023-05-05T01:14:01.472Z,7
2023-05-05T01:16:01.992Z,7
2023-05-05T01:18:01.632Z,4
2023-05-05T01:20:01.269Z,5
2023-05-05T01:22:01.783Z,5
2023-05-05T01:24:01.261Z,4
2023-05-05T01:26:02.232Z,7
2023-05-05T01:28:01.608Z,7
2023-05-05T01:30:01.284Z,3
2023-05-05T01:32:01.935Z,4
2023-05-05T01:34:01.311Z,4
2023-05-05T01:36:01.722Z,4
2023-05-05T01:38:01.357Z,4
2023-05-05T01:40:02.024Z,4
2023-05-05T01:42:01.447Z,4
2023-05-05T01:44:02.065Z,5
2023-05-05T01:46:01.602Z,5
2023-05-05T01:48:02.121Z,4
2023-05-05T01:50:01.730Z,4
2023-05-05T01:52:01.275Z,4
2023-05-05T01:54:01.916Z,3
2023-05-05T01:56:01.542Z,4
2023-05-05T01:58:02.209Z,4
2023-05-05T02:00:04.711Z,3
2023-05-05T02:02:01.501Z,4
2023-05-05T02:04:02.029Z,4
2023-05-05T02:06:01.518Z,3
2023-05-05T02:08:01.943Z,4
2023-05-05T02:10:01.391Z,4
2023-05-05T02:12:01.875Z,3
2023-05-05T02:14:01.286Z,4
2023-05-05T02:16:01.824Z,4
2023-05-05T02:18:01.466Z,3
2023-05-05T02:20:01.951Z,4
2023-05-05T02:22:01.271Z,4
2023-05-05T02:24:01.938Z,4
2023-05-05T02:26:01.452Z,4
2023-05-05T02:28:01.991Z,4
2023-05-05T02:30:01.493Z,3
2023-05-05T02:32:02.037Z,6
2023-05-05T02:34:01.544Z,6
2023-05-05T02:36:02.050Z,1
2023-05-05T02:38:01.557Z,4
2023-05-05T02:40:02.188Z,4
2023-05-05T02:42:01.511Z,3
2023-05-05T02:44:01.983Z,6
2023-05-05T02:46:01.401Z,6
2023-05-05T02:48:01.842Z,3
2023-05-05T02:50:01.341Z,3
2023-05-05T02:52:01.891Z,3
2023-05-05T02:54:01.395Z,4
2023-05-05T02:56:01.954Z,4
2023-05-05T02:58:01.439Z,4
2023-05-05T03:00:04.775Z,3
2023-05-05T03:02:01.954Z,4
2023-05-05T03:04:01.466Z,4
2023-05-05T03:06:01.986Z,1
2023-05-05T03:08:01.487Z,3
2023-05-05T03:10:02.047Z,3
2023-05-05T03:12:01.383Z,3
2023-05-05T03:14:01.867Z,4
2023-05-05T03:16:01.445Z,4
2023-05-05T03:18:01.912Z,1
2023-05-05T03:20:03.611Z,3
2023-05-05T03:22:02.035Z,3
2023-05-05T03:24:01.460Z,3
2023-05-05T03:26:01.775Z,4
2023-05-05T03:28:01.392Z,4
2023-05-05T03:30:02.090Z,3
2023-05-05T03:32:01.557Z,4
2023-05-05T03:34:01.908Z,4
2023-05-05T03:36:01.399Z,1
2023-05-05T03:38:01.902Z,1
2023-05-05T03:40:01.456Z,1
2023-05-05T03:44:01.527Z,3
2023-05-05T03:46:02.191Z,3
2023-05-05T03:48:01.680Z,1
2023-05-05T03:50:02.256Z,4
2023-05-05T03:52:01.664Z,4
2023-05-05T03:54:02.153Z,3
2023-05-05T03:56:01.609Z,4
2023-05-05T03:58:01.930Z,4
2023-05-05T04:00:04.716Z,1
2023-05-05T04:02:02.154Z,3
2023-05-05T04:04:01.934Z,3
2023-05-05T04:06:01.408Z,3
2023-05-05T04:08:01.958Z,4
2023-05-05T04:10:01.437Z,4
2023-05-05T04:12:01.825Z,1
2023-05-05T04:14:01.382Z,4
2023-05-05T04:16:01.982Z,4
2023-05-05T04:18:01.531Z,3
2023-05-05T04:20:02.159Z,6
2023-05-05T04:22:01.596Z,6
2023-05-05T04:24:02.249Z,3
2023-05-05T04:26:01.844Z,6
2023-05-05T04:28:01.454Z,6
2023-05-05T04:30:02.141Z,3
2023-05-05T04:32:01.549Z,4
2023-05-05T04:34:02.198Z,4
2023-05-05T04:36:01.614Z,3
2023-05-05T04:38:02.001Z,4
2023-05-05T04:40:01.457Z,4
2023-05-05T04:42:02.015Z,1
2023-05-05T04:44:01.481Z,3
2023-05-05T04:46:02.090Z,3
2023-05-05T04:48:01.636Z,3
2023-05-05T04:50:02.063Z,4
2023-05-05T04:52:01.580Z,4
2023-05-05T04:54:02.055Z,3
2023-05-05T04:56:01.759Z,3
2023-05-05T04:58:02.261Z,3
2023-05-05T05:00:04.977Z,1
2023-05-05T05:02:01.959Z,3
2023-05-05T05:04:01.568Z,3
2023-05-05T05:06:01.999Z,4
2023-05-05T05:08:01.319Z,6
2023-05-05T05:10:01.870Z,6
2023-05-05T05:12:01.341Z,1
2023-05-05T05:14:01.770Z,4
2023-05-05T05:16:01.286Z,4
2023-05-05T05:18:02.033Z,1
2023-05-05T05:20:01.460Z,4
2023-05-05T05:22:01.992Z,4
2023-05-05T05:24:01.448Z,3
2023-05-05T05:26:01.852Z,3
2023-05-05T05:28:10.104Z,3
2023-05-05T05:30:02.031Z,3
2023-05-05T05:32:01.476Z,4
2023-05-05T05:34:01.962Z,4
2023-05-05T05:36:01.460Z,1
2023-05-05T05:38:01.994Z,3
2023-05-05T05:40:01.381Z,3
2023-05-05T05:42:01.920Z,1
2023-05-05T05:44:01.313Z,3
2023-05-05T05:46:01.751Z,3
2023-05-05T05:48:02.220Z,3
2023-05-05T05:50:01.827Z,3
2023-05-05T05:52:02.063Z,3
2023-05-05T05:54:01.668Z,1
2023-05-05T05:56:02.179Z,3
2023-05-05T05:58:01.699Z,3
2023-05-05T06:00:03.397Z,3
2023-05-05T06:02:02.255Z,3
2023-05-05T06:04:01.901Z,3
2023-05-05T06:06:01.389Z,3
2023-05-05T06:08:01.966Z,4
2023-05-05T06:10:10.879Z,4
2023-05-05T06:14:02.060Z,3
2023-05-05T06:16:01.519Z,3
2023-05-05T06:18:02.084Z,1
2023-05-05T06:20:01.597Z,3
2023-05-05T06:22:01.803Z,3
2023-05-05T06:24:01.321Z,1
2023-05-05T06:26:01.921Z,4
2023-05-05T06:28:01.475Z,4
2023-05-05T06:30:01.978Z,1
2023-05-05T06:32:01.541Z,4
2023-05-05T06:34:01.998Z,4
2023-05-05T06:36:01.438Z,1
2023-05-05T06:38:01.999Z,3
2023-05-05T06:40:01.602Z,3
2023-05-05T06:42:02.046Z,1
2023-05-05T06:44:01.451Z,6
2023-05-05T06:46:01.883Z,6
2023-05-05T06:48:01.515Z,3
2023-05-05T06:50:01.874Z,3
2023-05-05T06:52:01.473Z,3
2023-05-05T06:54:02.060Z,1
2023-05-05T06:56:01.643Z,4
2023-05-05T06:58:01.982Z,4
2023-05-05T07:00:05.165Z,3
2023-05-05T07:02:02.136Z,1
2023-05-05T07:04:01.842Z,1
2023-05-05T07:06:01.434Z,1
2023-05-05T07:08:01.954Z,1
2023-05-05T07:10:01.416Z,1
2023-05-05T07:12:01.857Z,1
2023-05-05T07:14:02.196Z,3
2023-05-05T07:16:01.689Z,3
2023-05-05T07:18:01.281Z,1
2023-05-05T07:20:01.684Z,3
2023-05-05T07:22:01.374Z,3
2023-05-05T07:24:01.920Z,1
2023-05-05T07:26:01.322Z,3
2023-05-05T07:28:01.872Z,3
2023-05-05T07:30:05.592Z,1
2023-05-05T07:32:02.104Z,3
2023-05-05T07:34:01.501Z,3
2023-05-05T07:36:01.980Z,1
2023-05-05T07:38:01.365Z,3
2023-05-05T07:40:01.871Z,3
2023-05-05T07:42:01.408Z,1
2023-05-05T07:44:02.028Z,3
2023-05-05T07:46:01.497Z,3
2023-05-05T07:48:01.831Z,3
2023-05-05T07:50:02.364Z,3
2023-05-05T07:52:01.807Z,3
2023-05-05T07:54:02.175Z,0
2023-05-05T07:56:02.127Z,2
2023-05-05T07:58:01.515Z,2
2023-05-05T08:00:04.428Z,1
2023-05-05T08:02:01.974Z,3
2023-05-05T08:04:01.637Z,3
2023-05-05T08:06:02.023Z,1
2023-05-05T08:08:01.512Z,3
2023-05-05T08:10:02.179Z,3
2023-05-05T08:12:01.568Z,1
2023-05-05T08:14:02.193Z,1
2023-05-05T08:16:01.679Z,1
2023-05-05T08:18:02.249Z,3
2023-05-05T08:20:01.743Z,3
2023-05-05T08:22:02.218Z,3
2023-05-05T08:24:01.664Z,3
2023-05-05T08:26:01.195Z,1
2023-05-05T08:28:01.822Z,1
2023-05-05T08:30:01.359Z,1
2023-05-05T08:32:01.896Z,4
2023-05-05T08:34:01.426Z,4
2023-05-05T08:36:01.869Z,1
2023-05-05T08:38:01.289Z,1
2023-05-05T08:40:01.866Z,1
2023-05-05T08:42:01.395Z,1
2023-05-05T08:44:01.890Z,3
2023-05-05T08:46:01.356Z,3
2023-05-05T08:48:01.836Z,0
2023-05-05T08:50:01.291Z,1
2023-05-05T08:52:01.847Z,1
2023-05-05T08:54:01.413Z,1
2023-05-05T08:56:01.875Z,3
2023-05-05T08:58:01.410Z,3
2023-05-05T09:00:06.442Z,0
2023-05-05T09:04:01.596Z,4
2023-05-05T09:06:02.132Z,0
2023-05-05T09:08:01.636Z,1
2023-05-05T09:10:02.170Z,1
2023-05-05T09:12:01.552Z,3
2023-05-05T09:14:02.030Z,4
2023-05-05T09:16:01.439Z,4
2023-05-05T09:18:01.992Z,1
2023-05-05T09:20:01.319Z,1
2023-05-05T09:22:01.840Z,1
2023-05-05T09:24:07.845Z,1
2023-05-05T09:28:01.468Z,0
2023-05-05T09:30:02.375Z,1
2023-05-05T09:32:01.428Z,1
2023-05-05T09:34:02.010Z,1
2023-05-05T09:36:01.553Z,0
2023-05-05T09:38:02.038Z,2
2023-05-05T09:40:01.481Z,2
2023-05-05T09:42:02.037Z,1
2023-05-05T09:44:01.513Z,2
2023-05-05T09:46:01.897Z,2
2023-05-05T09:48:01.431Z,0
2023-05-05T09:50:02.006Z,1
2023-05-05T09:52:01.608Z,1
2023-05-05T09:54:02.087Z,4
2023-05-05T09:56:01.458Z,4
2023-05-05T09:58:01.938Z,4
2023-05-05T10:00:07.183Z,1
2023-05-05T10:04:01.351Z,0
2023-05-05T10:06:01.869Z,0
2023-05-05T10:08:01.238Z,1
2023-05-05T10:10:01.903Z,1
2023-05-05T10:12:01.299Z,1
2023-05-05T10:14:01.871Z,1
2023-05-05T10:16:02.223Z,1
2023-05-05T10:18:07.659Z,1
2023-05-05T10:20:02.216Z,1
2023-05-05T10:22:01.619Z,1
2023-05-05T10:24:02.162Z,1
2023-05-05T10:26:01.358Z,1
2023-05-05T10:28:01.876Z,1
2023-05-05T10:30:01.318Z,1
2023-05-05T10:32:03.982Z,1
2023-05-05T10:34:01.417Z,1
2023-05-05T10:36:01.942Z,1
2023-05-05T10:38:01.281Z,1
2023-05-05T10:40:02.143Z,1
2023-05-05T10:42:01.515Z,1
2023-05-05T10:44:04.453Z,1
2023-05-05T10:46:01.507Z,1
2023-05-05T10:48:01.985Z,0
2023-05-05T10:50:02.253Z,1
2023-05-05T10:52:01.616Z,1
2023-05-05T10:54:02.125Z,0
2023-05-05T10:56:01.427Z,1
2023-05-05T10:58:01.941Z,1
2023-05-05T11:00:02.240Z,1
2023-05-05T11:02:01.648Z,1
2023-05-05T11:04:02.197Z,1
2023-05-05T11:06:01.444Z,1
2023-05-05T11:08:01.968Z,2
2023-05-05T11:10:01.360Z,2
2023-05-05T11:12:01.971Z,2
2023-05-05T11:14:01.355Z,1
2023-05-05T11:16:01.917Z,1
2023-05-05T11:18:04.819Z,1
2023-05-05T11:22:02.108Z,1
2023-05-05T11:24:01.644Z,1
2023-05-05T11:26:02.144Z,1
2023-05-05T11:28:01.702Z,1
2023-05-05T11:30:02.286Z,1
2023-05-05T11:32:01.812Z,1
2023-05-05T11:34:01.460Z,1
2023-05-05T11:36:04.108Z,0
2023-05-05T11:40:01.997Z,1
2023-05-05T11:42:05.375Z,1
2023-05-05T11:46:01.407Z,1
2023-05-05T11:48:01.927Z,1
2023-05-05T11:50:01.589Z,1
2023-05-05T11:52:02.061Z,1
2023-05-05T11:54:01.471Z,1
2023-05-05T11:56:01.791Z,1
2023-05-05T11:58:01.344Z,1
2023-05-05T12:00:05.432Z,1
2023-05-05T12:02:02.049Z,1
2023-05-05T12:04:01.882Z,1
2023-05-05T12:06:02.189Z,0
2023-05-05T12:08:01.581Z,1
2023-05-05T12:10:02.261Z,1
2023-05-05T12:12:01.641Z,0
2023-05-05T12:14:01.882Z,1
2023-05-05T12:16:01.292Z,1
2023-05-05T12:18:03.223Z,1
2023-05-05T12:20:01.513Z,1
2023-05-05T12:22:01.967Z,1
2023-05-05T12:24:01.352Z,1
2023-05-05T12:26:01.862Z,1
2023-05-05T12:28:01.473Z,1
2023-05-05T12:30:02.064Z,1
2023-05-05T12:32:01.811Z,3
2023-05-05T12:34:02.196Z,3
2023-05-05T12:36:01.860Z,3
2023-05-05T12:38:02.173Z,1
2023-05-05T12:40:01.717Z,1
2023-05-05T12:42:01.243Z,1
2023-05-05T12:44:01.876Z,1
2023-05-05T12:46:01.479Z,1
2023-05-05T12:48:01.935Z,1
2023-05-05T12:50:01.318Z,1
2023-05-05T12:52:02.014Z,1
2023-05-05T12:54:01.537Z,1
2023-05-05T12:56:02.167Z,1
2023-05-05T12:58:01.656Z,1
2023-05-05T13:00:06.834Z,1
2023-05-05T13:02:01.676Z,1
2023-05-05T13:04:02.026Z,1
2023-05-05T13:06:01.667Z,1
2023-05-05T13:08:01.401Z,1
2023-05-05T13:10:01.845Z,1
2023-05-05T13:12:01.468Z,1
2023-05-05T13:14:02.083Z,3
2023-05-05T13:16:01.585Z,3
2023-05-05T13:18:02.132Z,3
2023-05-05T13:20:01.569Z,1
2023-05-05T13:22:02.157Z,1
2023-05-05T13:24:20.724Z,1
2023-05-05T13:26:02.094Z,0
2023-05-05T13:28:01.501Z,0
2023-05-05T13:30:02.073Z,0
2023-05-05T13:32:01.743Z,1
2023-05-05T13:34:01.452Z,1
2023-05-05T13:36:01.871Z,1
2023-05-05T13:38:01.438Z,2
2023-05-05T13:40:02.039Z,2
2023-05-05T13:42:01.600Z,2
2023-05-05T13:44:02.144Z,1
2023-05-05T13:46:16.138Z,1
2023-05-05T13:50:01.778Z,1
2023-05-05T13:52:01.359Z,1
2023-05-05T13:54:01.854Z,1
2023-05-05T13:56:01.260Z,1
2023-05-05T13:58:01.736Z,1
2023-05-05T14:00:09.411Z,1
2023-05-05T14:02:01.316Z,1
2023-05-05T14:04:04.514Z,1
2023-05-05T14:08:01.643Z,1
2023-05-05T14:10:01.256Z,1
2023-05-05T14:12:01.819Z,1
2023-05-05T14:14:02.238Z,1
2023-05-05T14:16:01.676Z,1
2023-05-05T14:18:02.265Z,1
2023-05-05T14:20:01.716Z,3
2023-05-05T14:22:01.321Z,3
2023-05-05T14:24:01.882Z,3
2023-05-05T14:26:01.468Z,1
2023-05-05T14:28:02.051Z,1
2023-05-05T14:30:01.671Z,1
2023-05-05T14:32:01.377Z,1
2023-05-05T14:34:01.975Z,1
2023-05-05T14:36:02.180Z,1
2023-05-05T14:38:01.589Z,0
2023-05-05T14:40:04.340Z,0
2023-05-05T14:44:02.109Z,1
2023-05-05T14:46:01.667Z,1
2023-05-05T14:48:02.143Z,1
2023-05-05T14:50:01.677Z,0
2023-05-05T14:52:02.226Z,0
2023-05-05T14:54:01.694Z,0
2023-05-05T14:56:02.162Z,1
2023-05-05T14:58:01.650Z,1
2023-05-05T15:00:04.644Z,1
2023-05-05T15:02:01.802Z,1
2023-05-05T15:04:01.355Z,1
2023-05-05T15:06:01.786Z,1
2023-05-05T15:08:02.244Z,0
2023-05-05T15:10:01.653Z,0
2023-05-05T15:12:02.202Z,0
2023-05-05T15:14:01.602Z,1
2023-05-05T15:16:02.019Z,1
2023-05-05T15:18:01.541Z,1
2023-05-05T15:20:02.041Z,0
2023-05-05T15:22:01.639Z,0
2023-05-05T15:24:02.053Z,0
2023-05-05T15:26:01.432Z,1
2023-05-05T15:28:02.004Z,1
2023-05-05T15:30:01.640Z,1
2023-05-05T15:32:02.117Z,1
2023-05-05T15:34:01.632Z,1
2023-05-05T15:36:02.160Z,1
2023-05-05T15:38:01.534Z,1
2023-05-05T15:40:02.189Z,1
2023-05-05T15:42:01.736Z,1
2023-05-05T15:44:02.291Z,0
2023-05-05T15:46:01.879Z,0
2023-05-05T15:50:02.064Z,1
2023-05-05T15:52:01.420Z,1
2023-05-05T15:54:01.919Z,1
2023-05-05T15:56:01.386Z,2
2023-05-05T15:58:01.929Z,2
2023-05-05T16:00:04.864Z,2
2023-05-05T16:02:01.720Z,2
2023-05-05T16:04:01.292Z,2
2023-05-05T16:06:01.892Z,2
2023-05-05T16:08:01.474Z,1
2023-05-05T16:10:02.103Z,1
2023-05-05T16:12:01.541Z,1
2023-05-05T16:14:02.130Z,1
2023-05-05T16:16:01.740Z,1
2023-05-05T16:18:01.329Z,1
2023-05-05T16:20:01.816Z,1
2023-05-05T16:22:01.302Z,1
2023-05-05T16:24:01.798Z,1
2023-05-05T16:26:01.548Z,1
2023-05-05T16:28:02.099Z,1
2023-05-05T16:30:01.563Z,1
2023-05-05T16:32:02.189Z,2
2023-05-05T16:34:01.664Z,2
2023-05-05T16:36:01.296Z,2
2023-05-05T16:38:02.007Z,1
2023-05-05T16:40:01.421Z,1
2023-05-05T16:42:02.033Z,1
2023-05-05T16:44:01.468Z,1
2023-05-05T16:46:02.138Z,1
2023-05-05T16:48:01.595Z,1
2023-05-05T16:50:02.073Z,1
2023-05-05T16:52:01.631Z,1
2023-05-05T16:54:02.178Z,1
2023-05-05T16:56:01.669Z,1
2023-05-05T16:58:01.305Z,1
2023-05-05T17:00:08.206Z,1
2023-05-05T17:04:01.543Z,1
2023-05-05T17:06:02.085Z,1
2023-05-05T17:08:01.613Z,1
2023-05-05T17:10:02.328Z,1
2023-05-05T17:12:01.718Z,1
2023-05-05T17:14:01.282Z,1
2023-05-05T17:16:01.784Z,1
2023-05-05T17:18:02.371Z,1
2023-05-05T17:20:01.734Z,1
2023-05-05T17:22:02.182Z,1
2023-05-05T17:24:01.263Z,1
2023-05-05T17:26:01.705Z,2
2023-05-05T17:28:02.135Z,2
2023-05-05T17:30:01.512Z,2
2023-05-05T17:32:02.222Z,1
2023-05-05T17:34:01.572Z,1
2023-05-05T17:36:01.985Z,1
2023-05-05T17:38:01.482Z,1
2023-05-05T17:40:02.139Z,1
2023-05-05T17:42:01.562Z,1
2023-05-05T17:44:02.089Z,1
2023-05-05T17:46:01.380Z,1
2023-05-05T17:48:01.771Z,1
2023-05-05T17:50:01.414Z,1
2023-05-05T17:52:01.986Z,1
2023-05-05T17:54:01.408Z,1
2023-05-05T17:56:01.999Z,1
2023-05-05T17:58:01.516Z,1
2023-05-05T18:00:06.519Z,1
2023-05-05T18:04:01.990Z,1
2023-05-05T18:06:01.474Z,1
2023-05-05T18:08:01.959Z,2
2023-05-05T18:10:01.608Z,2
2023-05-05T18:12:02.159Z,2
2023-05-05T18:14:01.567Z,2
2023-05-05T18:16:02.180Z,2
2023-05-05T18:18:01.645Z,2
2023-05-05T18:20:02.293Z,1
2023-05-05T18:22:01.991Z,1
2023-05-05T18:24:11.589Z,1
2023-05-05T18:26:02.146Z,1
2023-05-05T18:28:01.512Z,1
2023-05-05T18:30:02.023Z,1
2023-05-05T18:32:01.442Z,2
2023-05-05T18:34:02.112Z,2
2023-05-05T18:36:01.745Z,2
2023-05-05T18:38:02.200Z,1
2023-05-05T18:40:01.765Z,1
2023-05-05T18:42:01.248Z,1
2023-05-05T18:44:01.757Z,1
2023-05-05T18:46:02.252Z,1
2023-05-05T18:48:01.771Z,1
2023-05-05T18:50:02.220Z,2
2023-05-05T18:52:01.757Z,2
2023-05-05T18:54:02.235Z,2
2023-05-05T18:56:01.713Z,2
2023-05-05T18:58:02.168Z,2
2023-05-05T19:00:04.589Z,2
2023-05-05T19:02:01.528Z,1
2023-05-05T19:04:01.995Z,1
2023-05-05T19:06:01.404Z,1
2023-05-05T19:08:01.867Z,1
2023-05-05T19:10:01.313Z,1
2023-05-05T19:12:01.845Z,1
2023-05-05T19:14:02.214Z,1
2023-05-05T19:16:01.697Z,1
2023-05-05T19:18:02.143Z,1
2023-05-05T19:20:01.601Z,1
2023-05-05T19:22:03.001Z,1
2023-05-05T19:24:01.736Z,1
2023-05-05T19:26:02.188Z,1
2023-05-05T19:28:01.634Z,1
2023-05-05T19:30:02.184Z,1
2023-05-05T19:32:01.646Z,3
2023-05-05T19:34:02.109Z,3
2023-05-05T19:36:01.729Z,3
2023-05-05T19:38:02.190Z,1
2023-05-05T19:40:01.983Z,1
2023-05-05T19:42:01.410Z,1
2023-05-05T19:44:01.947Z,1
2023-05-05T19:46:01.412Z,1
2023-05-05T19:48:01.905Z,1
2023-05-05T19:50:01.335Z,1
2023-05-05T19:52:02.015Z,1
2023-05-05T19:54:01.519Z,1
2023-05-05T19:56:02.045Z,2
2023-05-05T19:58:01.538Z,2
2023-05-05T20:00:04.953Z,2
2023-05-05T20:02:01.620Z,3
2023-05-05T20:04:02.267Z,3
2023-05-05T20:06:01.549Z,3
2023-05-05T20:08:02.046Z,1
2023-05-05T20:10:01.409Z,1
2023-05-05T20:12:01.836Z,1
2023-05-05T20:14:02.236Z,2
2023-05-05T20:16:01.668Z,2
2023-05-05T20:18:02.168Z,2
2023-05-05T20:20:01.364Z,1
2023-05-05T20:22:01.888Z,1
2023-05-05T20:24:01.279Z,1
2023-05-05T20:26:01.839Z,2
2023-05-05T20:28:01.543Z,2
2023-05-05T20:30:02.211Z,2
2023-05-05T20:32:01.619Z,2
2023-05-05T20:34:02.174Z,2
2023-05-05T20:36:01.689Z,2
2023-05-05T20:38:02.118Z,1
2023-05-05T20:40:01.688Z,1
2023-05-05T20:42:02.246Z,1
2023-05-05T20:44:01.573Z,1
2023-05-05T20:46:02.060Z,1
2023-05-05T20:48:01.770Z,1
2023-05-05T20:50:02.121Z,1
2023-05-05T20:52:01.666Z,1
2023-05-05T20:54:01.264Z,1
2023-05-05T20:56:01.739Z,4
2023-05-05T20:58:02.102Z,4
2023-05-05T21:00:04.789Z,4
2023-05-05T21:02:01.698Z,1
2023-05-05T21:04:02.172Z,1
2023-05-05T21:06:01.607Z,1
2023-05-05T21:08:01.543Z,1
2023-05-05T21:10:01.739Z,1
2023-05-05T21:12:01.291Z,1
2023-05-05T21:14:01.939Z,3
2023-05-05T21:16:01.470Z,3
2023-05-05T21:18:01.999Z,3
2023-05-05T21:20:01.499Z,1
2023-05-05T21:22:02.004Z,1
2023-05-05T21:24:01.522Z,1
2023-05-05T21:26:02.052Z,2
2023-05-05T21:28:01.462Z,2
2023-05-05T21:30:02.100Z,2
2023-05-05T21:32:01.696Z,2
2023-05-05T21:34:02.120Z,2
2023-05-05T21:36:01.654Z,2
2023-05-05T21:38:02.100Z,2
2023-05-05T21:40:01.670Z,2
2023-05-05T21:42:01.340Z,2
2023-05-05T21:44:01.880Z,2
2023-05-05T21:46:01.403Z,2
2023-05-05T21:48:01.909Z,2
2023-05-05T21:50:01.685Z,3
2023-05-05T21:52:02.186Z,3
2023-05-05T21:54:01.757Z,3
2023-05-05T21:56:02.256Z,2
2023-05-05T21:58:01.696Z,2
2023-05-05T22:00:09.854Z,2
2023-05-05T22:02:01.813Z,1
2023-05-05T22:04:01.568Z,1
2023-05-05T22:06:01.831Z,1
2023-05-05T22:08:01.474Z,3
2023-05-05T22:10:02.083Z,3
2023-05-05T22:12:01.363Z,3
2023-05-05T22:14:01.956Z,3
2023-05-05T22:16:01.582Z,3
2023-05-05T22:18:02.166Z,3
2023-05-05T22:20:01.652Z,2
2023-05-05T22:22:01.284Z,2
2023-05-05T22:24:01.822Z,2
2023-05-05T22:26:01.321Z,4
2023-05-05T22:28:01.945Z,4
2023-05-05T22:30:01.519Z,4
2023-05-05T22:32:01.962Z,3
2023-05-05T22:34:01.509Z,3
2023-05-05T22:36:02.045Z,3
2023-05-05T22:38:01.412Z,3
2023-05-05T22:40:01.955Z,3
2023-05-05T22:42:01.455Z,3
2023-05-05T22:44:01.845Z,1
2023-05-05T22:46:01.387Z,1
2023-05-05T22:48:01.990Z,1
2023-05-05T22:50:01.485Z,3
2023-05-05T22:52:02.225Z,3
2023-05-05T22:54:01.762Z,3
2023-05-05T22:56:02.229Z,3
2023-05-05T22:58:01.723Z,3
2023-05-05T23:00:02.283Z,3
2023-05-05T23:02:02.245Z,1
2023-05-05T23:04:01.569Z,1
2023-05-05T23:06:02.027Z,1
2023-05-05T23:08:01.458Z,3
2023-05-05T23:10:01.932Z,3
2023-05-05T23:12:01.470Z,3
2023-05-05T23:14:02.022Z,3
2023-05-05T23:16:01.508Z,3
2023-05-05T23:18:02.233Z,3
2023-05-05T23:20:01.688Z,1
2023-05-05T23:22:01.333Z,1
2023-05-05T23:24:02.026Z,1
2023-05-05T23:26:01.407Z,1
2023-05-05T23:28:02.030Z,1
2023-05-05T23:30:01.740Z,1
2023-05-05T23:32:02.237Z,3
2023-05-05T23:34:01.625Z,3
2023-05-05T23:36:02.065Z,3
2023-05-05T23:38:01.531Z,1
2023-05-05T23:40:02.221Z,1
2023-05-05T23:42:01.645Z,1
2023-05-05T23:44:02.241Z,4
2023-05-05T23:46:01.625Z,4
2023-05-05T23:48:02.243Z,4
2023-05-05T23:50:01.729Z,1
2023-05-05T23:52:01.357Z,1
2023-05-05T23:54:01.995Z,1
2023-05-05T23:56:01.328Z,3
2023-05-05T23:58:01.928Z,3
